createdAt,value
2019-04-14T00:00:38.313Z,29.40
2019-04-14T00:03:10.831Z,29.50
2019-04-14T00:05:42.958Z,29.60
2019-04-14T00:08:15.295Z,29.60
2019-04-14T00:10:50.701Z,29.60
2019-04-14T00:13:21.762Z,29.80
2019-04-14T00:15:53.797Z,29.70
2019-04-14T00:18:25.141Z,29.60
2019-04-14T00:20:55.890Z,29.60
2019-04-14T00:23:26.624Z,29.80
2019-04-14T00:25:58.682Z,29.80
2019-04-14T00:28:29.463Z,29.80
2019-04-14T00:31:00.262Z,29.80
2019-04-14T00:33:32.328Z,29.70
2019-04-14T00:36:04.681Z,29.90
2019-04-14T00:38:36.991Z,29.90
2019-04-14T00:41:09.402Z,29.90
2019-04-14T00:43:48.489Z,29.90
2019-04-14T00:46:37.039Z,30.00
2019-04-14T00:49:09.196Z,30.00
2019-04-14T00:51:41.234Z,30.10
2019-04-14T00:54:13.228Z,30.10
2019-04-14T00:56:43.991Z,30.20
2019-04-14T00:59:15.652Z,30.20
2019-04-14T01:01:46.587Z,30.20
2019-04-14T01:04:17.278Z,30.10
2019-04-14T01:06:48.937Z,30.20
2019-04-14T01:09:20.154Z,30.30
2019-04-14T01:11:53.077Z,30.40
2019-04-14T01:14:25.474Z,30.40
2019-04-14T01:16:56.337Z,30.30
2019-04-14T01:19:27.060Z,30.40
2019-04-14T01:21:58.790Z,30.40
2019-04-14T01:24:29.768Z,30.50
2019-04-14T01:27:01.615Z,30.50
2019-04-14T01:29:34.040Z,30.50
2019-04-14T01:32:04.925Z,30.50
2019-04-14T01:34:36.911Z,30.70
2019-04-14T01:37:07.778Z,30.70
2019-04-14T01:39:39.276Z,30.70
2019-04-14T01:42:11.567Z,30.70
2019-04-14T01:44:42.475Z,30.70
2019-04-14T01:47:13.764Z,30.80
2019-04-14T01:49:44.691Z,30.80
2019-04-14T01:52:20.992Z,30.80
2019-04-14T01:55:00.424Z,30.80
2019-04-14T01:57:48.255Z,30.90
2019-04-14T02:00:38.664Z,30.90
2019-04-14T02:03:10.565Z,30.90
2019-04-14T02:05:43.069Z,31.00
2019-04-14T02:08:15.493Z,31.00
2019-04-14T02:10:47.847Z,31.00
2019-04-14T02:13:18.535Z,31.00
2019-04-14T02:15:49.188Z,31.00
2019-04-14T02:18:20.907Z,31.00
2019-04-14T02:20:51.744Z,31.00
2019-04-14T02:23:23.526Z,31.00
2019-04-14T02:25:55.657Z,31.10
2019-04-14T02:28:26.545Z,31.20
2019-04-14T02:31:10.275Z,31.20
2019-04-14T02:33:50.442Z,31.10
2019-04-14T02:36:32.590Z,31.20
2019-04-14T02:46:46.819Z,31.30
2019-04-14T02:49:02.219Z,31.40
2019-04-14T02:51:40.010Z,31.50
2019-04-14T02:54:15.429Z,31.60
2019-04-14T02:56:46.721Z,31.60
2019-04-14T02:59:13.216Z,31.60
2019-04-14T03:04:21.713Z,31.60
2019-04-14T03:06:55.059Z,31.60
2019-04-14T03:12:00.837Z,31.70
2019-04-14T03:14:40.230Z,31.80
2019-04-14T03:17:25.114Z,31.90
2019-04-14T03:19:48.061Z,31.90
2019-04-14T03:22:32.611Z,32.00
2019-04-14T03:24:50.375Z,32.10
2019-04-14T03:27:45.720Z,32.10
2019-04-14T03:30:46.327Z,32.10
2019-04-14T03:33:21.227Z,32.10
2019-04-14T03:35:51.937Z,32.20
2019-04-14T03:43:14.901Z,32.30
2019-04-14T03:45:55.211Z,32.40
2019-04-14T03:48:33.863Z,32.40
2019-04-14T03:50:37.393Z,32.50
2019-04-14T03:55:45.273Z,32.50
2019-04-14T03:58:13.517Z,32.60
2019-04-14T04:00:44.321Z,32.60
2019-04-14T04:03:15.715Z,32.70
2019-04-14T04:05:46.408Z,32.70
2019-04-14T04:08:17.997Z,32.80
2019-04-14T04:10:51.095Z,32.70
2019-04-14T04:13:23.747Z,32.80
2019-04-14T04:15:56.250Z,32.90
2019-04-14T04:18:28.781Z,32.90
2019-04-14T04:21:18.401Z,32.90
2019-04-14T04:23:53.586Z,33.00
2019-04-14T04:26:32.202Z,33.00
2019-04-14T04:29:04.817Z,33.00
2019-04-14T04:31:39.870Z,33.10
2019-04-14T04:34:20.878Z,33.10
2019-04-14T04:36:55.892Z,33.10
2019-04-14T04:39:33.743Z,33.10
2019-04-14T04:42:04.728Z,33.10
2019-04-14T04:44:35.642Z,33.10
2019-04-14T04:47:07.649Z,33.10
2019-04-14T04:49:38.692Z,33.20
2019-04-14T04:52:11.410Z,33.30
2019-04-14T04:54:42.736Z,33.30
2019-04-14T04:57:13.874Z,33.20
2019-04-14T04:59:45.302Z,33.30
2019-04-14T05:02:16.062Z,33.40
2019-04-14T05:04:48.304Z,33.40
2019-04-14T05:07:19.215Z,33.40
2019-04-14T05:09:57.741Z,33.40
2019-04-14T05:12:30.588Z,33.40
2019-04-14T05:15:03.802Z,33.40
2019-04-14T05:17:39.010Z,33.50
2019-04-14T05:20:10.090Z,33.60
2019-04-14T05:22:41.773Z,33.70
2019-04-14T05:25:12.571Z,33.60
2019-04-14T05:27:43.563Z,33.70
2019-04-14T05:30:35.013Z,33.70
2019-04-14T05:33:05.959Z,33.70
2019-04-14T05:35:37.940Z,33.60
2019-04-14T05:38:08.846Z,33.70
2019-04-14T05:40:40.726Z,33.80
2019-04-14T05:43:11.719Z,33.80
2019-04-14T05:45:43.647Z,34.00
2019-04-14T05:48:15.990Z,34.00
2019-04-14T05:50:47.003Z,34.10
2019-04-14T05:53:17.675Z,34.10
2019-04-14T05:55:48.562Z,34.20
2019-04-14T05:58:19.247Z,34.30
2019-04-14T06:01:11.231Z,34.20
2019-04-14T06:03:43.145Z,34.20
2019-04-14T06:06:14.151Z,34.20
2019-04-14T06:08:44.839Z,34.30
2019-04-14T06:11:15.569Z,34.40
2019-04-14T06:13:46.463Z,34.30
2019-04-14T06:16:17.527Z,34.40
2019-04-14T06:18:48.285Z,34.50
2019-04-14T06:21:19.158Z,34.50
2019-04-14T06:23:49.906Z,34.40
2019-04-14T06:26:20.685Z,34.50
2019-04-14T06:28:51.548Z,34.50
2019-04-14T06:31:39.818Z,34.50
2019-04-14T06:34:18.279Z,34.50
2019-04-14T06:36:56.199Z,34.50
2019-04-14T06:39:28.564Z,34.50
2019-04-14T06:41:59.218Z,34.50
2019-04-14T06:44:29.948Z,34.50
2019-04-14T06:47:00.819Z,34.60
2019-04-14T06:49:31.487Z,34.70
2019-04-14T06:52:02.302Z,34.70
2019-04-14T06:54:33.223Z,34.70
2019-04-14T06:57:03.787Z,34.70
2019-04-14T06:59:34.563Z,34.70
2019-04-14T07:02:08.520Z,34.70
2019-04-14T07:04:38.083Z,34.70
2019-04-14T07:07:08.967Z,34.70
2019-04-14T07:09:39.638Z,34.80
2019-04-14T07:12:10.490Z,34.80
2019-04-14T07:14:41.476Z,34.80
2019-04-14T07:17:12.618Z,34.90
2019-04-14T07:19:43.497Z,34.90
2019-04-14T07:22:14.425Z,35.00
2019-04-14T07:24:45.103Z,35.10
2019-04-14T07:27:15.842Z,35.00
2019-04-14T07:30:04.696Z,35.00
2019-04-14T07:32:48.972Z,35.10
2019-04-14T07:35:37.258Z,35.10
2019-04-14T07:38:12.568Z,35.10
2019-04-14T07:40:43.728Z,35.20
2019-04-14T07:43:28.021Z,35.20
2019-04-14T07:46:06.864Z,35.20
2019-04-14T07:48:39.084Z,35.10
2019-04-14T07:51:29.800Z,35.10
2019-04-14T07:54:08.249Z,35.10
2019-04-14T07:56:47.105Z,35.10
2019-04-14T07:59:19.303Z,35.10
2019-04-14T08:02:04.014Z,35.10
2019-04-14T08:04:36.648Z,35.10
2019-04-14T08:07:07.382Z,34.90
2019-04-14T08:09:38.379Z,34.80
2019-04-14T08:12:09.160Z,34.70
2019-04-14T08:14:39.886Z,34.60
2019-04-14T08:17:10.786Z,34.60
2019-04-14T08:19:41.844Z,34.60
2019-04-14T08:22:12.721Z,34.50
2019-04-14T08:24:43.672Z,34.50
2019-04-14T08:27:14.330Z,34.50
2019-04-14T08:29:45.099Z,34.40
2019-04-14T08:32:15.923Z,34.30
2019-04-14T08:34:46.597Z,34.20
2019-04-14T08:37:17.222Z,34.20
2019-04-14T08:39:48.050Z,34.10
2019-04-14T08:42:23.175Z,34.00
2019-04-14T08:45:17.463Z,33.90
2019-04-14T08:47:52.538Z,33.80
2019-04-14T08:50:41.321Z,33.80
2019-04-14T08:53:13.350Z,33.80
2019-04-14T08:55:45.665Z,33.70
2019-04-14T08:58:34.208Z,33.70
2019-04-14T09:01:20.365Z,33.60
2019-04-14T09:03:58.618Z,33.50
2019-04-14T09:06:46.475Z,33.50
2019-04-14T09:09:25.086Z,33.40
2019-04-14T09:11:57.467Z,33.40
2019-04-14T09:14:28.331Z,33.30
2019-04-14T09:16:58.986Z,33.30
2019-04-14T09:19:29.872Z,33.20
2019-04-14T09:22:00.840Z,33.20
2019-04-14T09:24:31.563Z,33.00
2019-04-14T09:27:02.458Z,32.90
2019-04-14T09:29:34.496Z,32.90
2019-04-14T09:32:06.903Z,32.90
2019-04-14T09:34:37.689Z,32.90
2019-04-14T09:37:27.266Z,32.90
2019-04-14T09:39:58.075Z,32.90
2019-04-14T09:42:28.711Z,32.80
2019-04-14T09:44:59.652Z,32.80
2019-04-14T09:47:30.398Z,32.70
2019-04-14T09:50:01.120Z,32.70
2019-04-14T09:52:32.013Z,32.50
2019-04-14T09:55:02.668Z,32.50
2019-04-14T09:57:33.391Z,32.50
2019-04-14T10:00:04.283Z,32.40
2019-04-14T10:02:34.961Z,32.50
2019-04-14T10:05:06.499Z,32.50
2019-04-14T10:07:38.092Z,32.50
2019-04-14T10:10:08.853Z,32.50
2019-04-14T10:12:40.347Z,32.40
2019-04-14T10:15:11.167Z,32.30
2019-04-14T10:17:41.831Z,32.40
2019-04-14T10:20:12.547Z,32.40
2019-04-14T10:22:43.358Z,32.40
2019-04-14T10:25:14.543Z,32.40
2019-04-14T10:27:45.378Z,32.30
2019-04-14T10:30:18.092Z,32.30
2019-04-14T10:32:48.851Z,32.40
2019-04-14T10:35:19.460Z,32.40
2019-04-14T10:37:50.305Z,32.50
2019-04-14T10:40:21.158Z,32.50
2019-04-14T10:42:52.261Z,32.40
2019-04-14T10:45:23.024Z,32.40
2019-04-14T10:47:53.827Z,32.30
2019-04-14T10:50:30.794Z,32.40
2019-04-14T10:52:56.879Z,32.30
2019-04-14T10:55:27.539Z,32.30
2019-04-14T10:57:58.544Z,32.30
2019-04-14T11:00:29.365Z,32.30
2019-04-14T11:03:00.029Z,32.30
2019-04-14T11:05:32.218Z,32.30
2019-04-14T11:08:03.557Z,32.20
2019-04-14T11:10:34.319Z,32.20
2019-04-14T11:13:05.112Z,32.20
2019-04-14T11:15:36.139Z,32.10
2019-04-14T11:18:06.938Z,32.00
2019-04-14T11:20:38.828Z,32.00
2019-04-14T11:23:09.580Z,32.10
2019-04-14T11:25:40.460Z,32.10
2019-04-14T11:28:11.717Z,32.10
2019-04-14T11:30:42.511Z,32.10
2019-04-14T11:33:20.998Z,32.10
2019-04-14T11:35:53.231Z,32.00
2019-04-14T11:38:25.542Z,32.10
2019-04-14T11:40:57.777Z,32.10
2019-04-14T11:43:28.585Z,32.00
2019-04-14T11:45:59.280Z,32.00
2019-04-14T11:48:30.103Z,31.90
2019-04-14T11:51:01.008Z,31.90
2019-04-14T11:53:31.687Z,31.80
2019-04-14T11:56:02.565Z,31.80
2019-04-14T11:58:33.401Z,31.80
2019-04-14T12:01:05.499Z,31.80
2019-04-14T12:03:51.578Z,31.80
2019-04-14T12:06:38.899Z,31.80
2019-04-14T12:09:17.751Z,31.70
2019-04-14T12:11:48.618Z,31.80
2019-04-14T12:14:19.314Z,31.80
2019-04-14T12:16:50.159Z,31.70
2019-04-14T12:19:20.991Z,31.80
2019-04-14T12:21:51.719Z,31.70
2019-04-14T12:24:22.615Z,31.70
2019-04-14T12:26:53.275Z,31.70
2019-04-14T12:29:24.299Z,31.60
2019-04-14T12:31:55.674Z,31.50
2019-04-14T12:34:26.350Z,31.60
2019-04-14T12:36:57.067Z,31.70
2019-04-14T12:39:28.188Z,31.60
2019-04-14T12:42:03.632Z,31.60
2019-04-14T12:44:51.519Z,31.50
2019-04-14T12:47:40.617Z,31.40
2019-04-14T12:50:19.468Z,31.50
2019-04-14T12:52:50.202Z,31.40
2019-04-14T12:55:20.694Z,31.40
2019-04-14T12:58:01.734Z,31.50
2019-04-14T13:00:43.275Z,31.40
2019-04-14T13:03:14.355Z,31.40
2019-04-14T13:05:46.383Z,31.30
2019-04-14T13:08:17.211Z,31.30
2019-04-14T13:10:48.930Z,31.30
2019-04-14T13:13:19.800Z,31.30
2019-04-14T13:15:50.607Z,31.30
2019-04-14T13:18:41.627Z,31.20
2019-04-14T13:21:12.283Z,31.40
2019-04-14T13:23:43.007Z,31.40
2019-04-14T13:26:13.909Z,31.30
2019-04-14T13:28:44.575Z,31.30
2019-04-14T13:31:15.608Z,31.40
2019-04-14T13:33:46.488Z,31.40
2019-04-14T13:36:17.154Z,31.40
2019-04-14T13:38:47.875Z,31.30
2019-04-14T13:41:18.660Z,31.30
2019-04-14T13:44:18.630Z,31.20
2019-04-14T13:46:57.466Z,31.30
2019-04-14T13:49:28.294Z,31.30
2019-04-14T13:51:58.990Z,31.30
2019-04-14T13:54:30.121Z,31.20
2019-04-14T13:57:00.902Z,31.30
2019-04-14T13:59:31.635Z,31.30
2019-04-14T14:02:02.525Z,31.20
2019-04-14T14:04:33.191Z,31.20
2019-04-14T14:07:04.314Z,31.10
2019-04-14T14:09:35.250Z,31.20
2019-04-14T14:12:20.298Z,31.20
2019-04-14T14:15:08.851Z,31.30
2019-04-14T14:17:44.059Z,31.30
2019-04-14T14:20:16.638Z,31.20
2019-04-14T14:22:58.619Z,31.20
2019-04-14T14:25:28.632Z,31.20
2019-04-14T14:27:59.450Z,31.20
2019-04-14T14:30:30.183Z,31.20
2019-04-14T14:33:01.443Z,31.10
2019-04-14T14:35:32.095Z,31.10
2019-04-14T14:38:02.829Z,31.10
2019-04-14T14:40:33.695Z,31.00
2019-04-14T14:43:04.359Z,31.10
2019-04-14T14:45:52.039Z,31.00
2019-04-14T14:48:24.254Z,31.00
2019-04-14T14:50:56.578Z,31.10
2019-04-14T14:53:27.262Z,31.10
2019-04-14T14:55:57.996Z,31.10
2019-04-14T14:58:28.889Z,31.10
2019-04-14T15:00:59.546Z,31.10
2019-04-14T15:03:30.150Z,31.00
2019-04-14T15:06:00.950Z,31.00
2019-04-14T15:08:31.636Z,31.00
2019-04-14T15:11:04.199Z,31.00
2019-04-14T15:13:35.262Z,31.10
2019-04-14T15:16:06.023Z,31.10
2019-04-14T15:18:36.746Z,31.00
2019-04-14T15:21:07.629Z,31.00
2019-04-14T15:23:38.303Z,31.00
2019-04-14T15:26:10.502Z,31.00
2019-04-14T15:28:41.300Z,31.00
2019-04-14T15:31:12.035Z,31.00
2019-04-14T15:33:42.767Z,30.90
2019-04-14T15:36:13.972Z,31.00
2019-04-14T15:38:44.675Z,30.90
2019-04-14T15:41:15.347Z,31.00
2019-04-14T15:43:46.194Z,31.00
2019-04-14T15:46:16.843Z,30.90
2019-04-14T15:48:47.761Z,30.90
2019-04-14T15:51:18.658Z,30.90
2019-04-14T15:53:49.348Z,30.90
2019-04-14T15:56:24.183Z,30.90
2019-04-14T15:59:02.914Z,30.80
2019-04-14T16:01:35.319Z,30.80
2019-04-14T16:04:13.705Z,30.80
2019-04-14T16:06:55.474Z,30.80
2019-04-14T16:09:39.735Z,30.80
2019-04-14T16:12:24.129Z,30.90
2019-04-14T16:15:02.572Z,30.90
2019-04-14T16:17:34.777Z,30.80
2019-04-14T16:20:08.073Z,30.70
2019-04-14T16:22:39.112Z,30.70
2019-04-14T16:25:10.029Z,30.80
2019-04-14T16:27:42.126Z,30.70
2019-04-14T16:30:32.729Z,30.70
2019-04-14T16:33:04.848Z,30.70
2019-04-14T16:35:37.701Z,30.80
2019-04-14T16:38:08.629Z,30.90
2019-04-14T16:46:31.278Z,30.80
2019-04-14T16:49:02.027Z,30.90
2019-04-14T16:51:43.579Z,30.80
2019-04-14T16:54:15.583Z,30.70
2019-04-14T16:56:51.108Z,30.80
2019-04-14T16:59:20.622Z,30.80
2019-04-14T17:01:51.350Z,30.80
2019-04-14T17:04:22.233Z,30.70
2019-04-14T17:06:52.990Z,30.70
2019-04-14T17:09:23.733Z,30.70
2019-04-14T17:11:54.612Z,30.70
2019-04-14T17:14:26.644Z,30.60
2019-04-14T17:17:05.308Z,30.70
2019-04-14T17:19:49.833Z,30.70
2019-04-14T17:22:28.244Z,30.70
2019-04-14T17:25:03.424Z,30.60
2019-04-14T17:27:35.789Z,30.60
2019-04-14T17:30:12.667Z,30.70
2019-04-14T17:32:46.858Z,30.60
2019-04-14T17:35:18.735Z,30.60
2019-04-14T17:37:51.172Z,30.70
2019-04-14T17:40:42.237Z,30.70
2019-04-14T17:43:14.703Z,30.60
2019-04-14T17:45:46.909Z,30.60
2019-04-14T17:48:35.400Z,30.60
2019-04-14T17:51:07.551Z,30.60
2019-04-14T17:53:58.054Z,30.60
2019-04-14T17:56:45.559Z,30.50
2019-04-14T17:59:17.846Z,30.60
2019-04-14T18:02:08.772Z,30.60
2019-04-14T18:04:41.171Z,30.60
2019-04-14T18:07:16.651Z,30.60
2019-04-14T18:09:58.015Z,30.50
2019-04-14T18:12:30.215Z,30.50
2019-04-14T18:15:14.890Z,30.40
2019-04-14T18:18:04.059Z,30.40
2019-04-14T18:20:39.461Z,30.50
2019-04-14T18:23:10.195Z,30.40
2019-04-14T18:25:49.446Z,30.40
2019-04-14T18:28:22.081Z,30.50
2019-04-14T18:31:00.334Z,30.40
2019-04-14T18:33:50.959Z,30.40
2019-04-14T18:36:32.003Z,30.40
2019-04-14T18:39:22.594Z,30.40
2019-04-14T18:41:58.143Z,30.40
2019-04-14T18:44:30.443Z,30.50
2019-04-14T18:47:02.579Z,30.50
2019-04-14T18:49:34.791Z,30.40
2019-04-14T18:52:09.783Z,30.30
2019-04-14T18:54:54.685Z,30.40
2019-04-14T18:57:24.954Z,30.40
2019-04-14T18:59:57.520Z,30.30
2019-04-14T19:02:28.248Z,30.30
2019-04-14T19:04:58.899Z,30.40
2019-04-14T19:07:29.790Z,30.40
2019-04-14T19:10:00.451Z,30.30
2019-04-14T19:12:35.649Z,30.30
2019-04-14T19:15:09.072Z,30.30
2019-04-14T19:17:44.453Z,30.30
2019-04-14T19:20:17.211Z,30.30
2019-04-14T19:22:48.211Z,30.30
2019-04-14T19:25:18.845Z,30.30
2019-04-14T19:27:49.499Z,30.20
2019-04-14T19:30:39.234Z,30.30
2019-04-14T19:33:09.926Z,30.20
2019-04-14T19:35:40.647Z,30.20
2019-04-14T19:38:11.530Z,30.20
2019-04-14T19:40:42.110Z,30.30
2019-04-14T19:43:23.068Z,30.30
2019-04-14T19:45:45.639Z,30.20
2019-04-14T19:48:16.439Z,30.30
2019-04-14T19:50:47.166Z,30.20
2019-04-14T19:53:17.993Z,30.30
2019-04-14T19:55:48.663Z,30.30
2019-04-14T19:58:19.442Z,30.30
2019-04-14T20:00:50.284Z,30.20
2019-04-14T20:03:20.716Z,30.20
2019-04-14T20:05:51.431Z,30.20
2019-04-14T20:08:22.559Z,30.20
2019-04-14T20:10:53.354Z,30.20
2019-04-14T20:13:24.576Z,30.20
2019-04-14T20:16:08.874Z,30.10
2019-04-14T20:18:46.802Z,30.10
2019-04-14T20:21:34.764Z,30.10
2019-04-14T20:24:07.299Z,30.20
2019-04-14T20:26:42.745Z,30.10
2019-04-14T20:29:18.291Z,30.10
2019-04-14T20:31:50.713Z,30.20
2019-04-14T20:34:21.531Z,30.20
2019-04-14T20:36:52.287Z,30.30
2019-04-14T20:39:23.275Z,30.20
2019-04-14T20:41:54.102Z,30.10
2019-04-14T20:44:26.175Z,30.10
2019-04-14T20:46:57.056Z,30.20
2019-04-14T20:49:27.732Z,30.20
2019-04-14T20:51:58.617Z,30.20
2019-04-14T20:54:29.559Z,30.20
2019-04-14T20:57:00.231Z,30.10
2019-04-14T20:59:30.955Z,30.20
2019-04-14T21:02:09.387Z,30.20
2019-04-14T21:04:51.160Z,30.20
2019-04-14T21:07:40.147Z,30.20
2019-04-14T21:10:12.351Z,30.20
2019-04-14T21:12:47.900Z,30.20
2019-04-14T21:15:36.318Z,30.10
2019-04-14T21:18:11.426Z,30.10
2019-04-14T21:21:02.078Z,30.10
2019-04-14T21:23:34.991Z,30.10
2019-04-14T21:26:10.132Z,30.10
2019-04-14T21:28:59.123Z,30.00
2019-04-14T21:31:31.335Z,30.10
2019-04-14T21:34:03.655Z,30.10
2019-04-14T21:36:38.714Z,30.10
2019-04-14T21:39:20.606Z,30.00
2019-04-14T21:41:54.499Z,30.10
2019-04-14T21:44:25.359Z,30.00
2019-04-14T21:46:56.671Z,30.10
2019-04-14T21:49:27.430Z,30.00
2019-04-14T21:52:02.757Z,30.10
2019-04-14T21:54:33.508Z,30.10
2019-04-14T21:57:14.730Z,30.10
2019-04-14T22:00:03.353Z,30.10
2019-04-14T22:02:48.085Z,30.10
2019-04-14T22:05:35.571Z,30.10
2019-04-14T22:08:10.630Z,30.10
2019-04-14T22:10:45.906Z,30.00
2019-04-14T22:13:17.133Z,30.00
2019-04-14T22:15:47.890Z,30.00
2019-04-14T22:18:18.906Z,30.00
2019-04-14T22:20:49.815Z,30.00
2019-04-14T22:23:20.472Z,29.90
2019-04-14T22:25:51.566Z,30.00
2019-04-14T22:28:22.398Z,30.00
2019-04-14T22:30:53.038Z,30.00
2019-04-14T22:33:23.666Z,30.00
2019-04-14T22:35:54.479Z,30.00
2019-04-14T22:38:25.142Z,30.00
2019-04-14T22:40:55.863Z,30.10
2019-04-14T22:43:26.750Z,30.00
2019-04-14T22:45:57.406Z,30.00
2019-04-14T22:48:28.458Z,30.00
2019-04-14T22:50:59.451Z,30.00
2019-04-14T22:53:30.123Z,29.90
2019-04-14T22:56:00.831Z,29.90
2019-04-14T22:58:31.634Z,29.90
2019-04-14T23:01:03.870Z,30.00
2019-04-14T23:03:36.168Z,30.00
2019-04-14T23:06:08.433Z,29.90
2019-04-14T23:08:49.863Z,29.90
2019-04-14T23:11:24.945Z,30.00
2019-04-14T23:14:13.938Z,30.00
2019-04-14T23:16:58.028Z,30.00
2019-04-14T23:19:42.854Z,29.90
2019-04-14T23:22:33.284Z,29.90
2019-04-14T23:25:04.179Z,29.90
2019-04-14T23:27:35.246Z,29.90
2019-04-14T23:30:07.954Z,29.90
2019-04-14T23:32:38.632Z,29.90
2019-04-14T23:35:10.074Z,30.00
2019-04-14T23:37:41.055Z,30.00
2019-04-14T23:40:11.810Z,30.00
2019-04-14T23:42:43.232Z,30.00
2019-04-14T23:45:14.147Z,30.00
2019-04-14T23:47:44.803Z,30.00
2019-04-14T23:50:17.135Z,30.00
2019-04-14T23:52:48.030Z,30.00
2019-04-14T23:55:18.943Z,30.00
2019-04-14T23:57:49.598Z,30.10
